地図

経路データ

SID SEASON NUMBER BASIN SUBBASIN NAME ISO_TIME NATURE LAT LON WMO_WIND WMO_PRES WMO_AGENCY TRACK_TYPE DIST2LAND LANDFALL IFLAG USA_AGENCY USA_ATCF_ID USA_LAT USA_LON USA_RECORD USA_STATUS USA_WIND USA_PRES USA_SSHS USA_R34_NE USA_R34_SE USA_R34_SW USA_R34_NW USA_R50_NE USA_R50_SE USA_R50_SW USA_R50_NW USA_R64_NE USA_R64_SE USA_R64_SW USA_R64_NW USA_POCI USA_ROCI USA_RMW USA_EYE TOKYO_LAT TOKYO_LON TOKYO_GRADE TOKYO_WIND TOKYO_PRES TOKYO_R50_DIR TOKYO_R50_LONG TOKYO_R50_SHORT TOKYO_R30_DIR TOKYO_R30_LONG TOKYO_R30_SHORT TOKYO_LAND CMA_LAT CMA_LON CMA_CAT CMA_WIND CMA_PRES HKO_LAT HKO_LON HKO_CAT HKO_WIND HKO_PRES NEWDELHI_LAT NEWDELHI_LON NEWDELHI_GRADE NEWDELHI_WIND NEWDELHI_PRES NEWDELHI_CI NEWDELHI_DP NEWDELHI_POCI REUNION_LAT REUNION_LON REUNION_TYPE REUNION_WIND REUNION_PRES REUNION_TNUM REUNION_CI REUNION_RMW REUNION_R34_NE REUNION_R34_SE REUNION_R34_SW REUNION_R34_NW REUNION_R50_NE REUNION_R50_SE REUNION_R50_SW REUNION_R50_NW REUNION_R64_NE REUNION_R64_SE REUNION_R64_SW REUNION_R64_NW BOM_LAT BOM_LON BOM_TYPE BOM_WIND BOM_PRES BOM_TNUM BOM_CI BOM_RMW BOM_R34_NE BOM_R34_SE BOM_R34_SW BOM_R34_NW BOM_R50_NE BOM_R50_SE BOM_R50_SW BOM_R50_NW BOM_R64_NE BOM_R64_SE BOM_R64_SW BOM_R64_NW BOM_ROCI BOM_POCI BOM_EYE BOM_POS_METHOD BOM_PRES_METHOD NADI_LAT NADI_LON NADI_CAT NADI_WIND NADI_PRES WELLINGTON_LAT WELLINGTON_LON WELLINGTON_WIND WELLINGTON_PRES DS824_LAT DS824_LON DS824_STAGE DS824_WIND DS824_PRES TD9636_LAT TD9636_LON TD9636_STAGE TD9636_WIND TD9636_PRES TD9635_LAT TD9635_LON TD9635_WIND TD9635_PRES TD9635_ROCI NEUMANN_LAT NEUMANN_LON NEUMANN_CLASS NEUMANN_WIND NEUMANN_PRES MLC_LAT MLC_LON MLC_CLASS MLC_WIND MLC_PRES USA_GUST BOM_GUST BOM_GUST_PER REUNION_GUST REUNION_GUST_PER USA_SEAHGT USA_SEARAD_NE USA_SEARAD_SE USA_SEARAD_SW USA_SEARAD_NW STORM_SPEED STORM_DIR
1931261N12133 1931 39 WP MM NOT_NAMED 1931-09-18 10:00:00 NR 11.9000 132.500 main 737 716 __________O___ -1 11.9000 132.500 7 6 265
1931261N12133 1931 39 WP MM NOT_NAMED 1931-09-18 12:00:00 NR 11.8809 132.293 main 716 683 __________P___ -1 11.8809 132.293 7 6 265
1931261N12133 1931 39 WP MM NOT_NAMED 1931-09-18 15:00:00 NR 11.8531 131.959 main 683 638 __________P___ -1 11.8531 131.959 7 7 266
1931261N12133 1931 39 WP MM NOT_NAMED 1931-09-18 18:00:00 NR 11.8277 131.569 main 638 585 __________P___ -1 11.8277 131.569 7 9 267
1931261N12133 1931 39 WP MM NOT_NAMED 1931-09-18 21:00:00 NR 11.8061 131.087 main 585 563 __________P___ -1 11.8061 131.087 7 10 268
1931261N12133 1931 39 WP MM NOT_NAMED 1931-09-18 22:00:00 NR 11.8000 130.900 main 563 520 __________O___ -1 11.8000 130.900 7 12 268
1931261N12133 1931 39 WP MM NOT_NAMED 1931-09-19 00:00:00 NR 11.7896 130.483 main 520 445 __________P___ -1 11.7896 130.483 7 13 269
1931261N12133 1931 39 WP MM NOT_NAMED 1931-09-19 03:00:00 NR 11.7799 129.782 main 445 360 __________P___ -1 11.7799 129.782 7 14 270
1931261N12133 1931 39 WP MM NOT_NAMED 1931-09-19 06:00:00 NR 11.7797 129.043 main 360 287 __________P___ -1 11.7797 129.043 7 14 270
1931261N12133 1931 39 WP MM NOT_NAMED 1931-09-19 09:00:00 NR 11.7923 128.325 main 287 266 __________P___ -1 11.7923 128.325 7 14 271
1931261N12133 1931 39 WP MM NOT_NAMED 1931-09-19 10:00:00 NR 11.8000 128.100 main 266 225 __________O___ -1 11.8000 128.100 3 12 272
1931261N12133 1931 39 WP MM NOT_NAMED 1931-09-19 12:00:00 NR 11.8081 127.715 main 225 177 __________P___ -1 11.8081 127.715 3 11 272
1931261N12133 1931 39 WP MM NOT_NAMED 1931-09-19 15:00:00 NR 11.8331 127.182 main 177 132 __________P___ -1 11.8331 127.182 3 10 274
1931261N12133 1931 39 WP MM NOT_NAMED 1931-09-19 18:00:00 NR 11.8819 126.677 main 132 79 __________P___ -1 11.8819 126.677 3 10 278
1931261N12133 1931 39 WP MM NOT_NAMED 1931-09-19 21:00:00 NR 11.9638 126.173 main 79 58 __________P___ -1 11.9638 126.173 3 10 280
1931261N12133 1931 39 WP MM NOT_NAMED 1931-09-19 22:00:00 NR 12.0000 126.000 main 58 15 __________O___ -1 12.0000 126.000 4 11 280
1931261N12133 1931 39 WP MM NOT_NAMED 1931-09-20 00:00:00 NR 12.0647 125.604 main 15 0 __________P___ -1 12.0647 125.604 4 12 281
1931261N12133 1931 39 WP MM NOT_NAMED 1931-09-20 03:00:00 NR 12.1927 124.998 main 0 0 __________P___ -1 12.1927 124.998 4 12 285
1931261N12133 1931 39 WP MM NOT_NAMED 1931-09-20 06:00:00 NR 12.3688 124.406 main 0 0 __________P___ -1 12.3688 124.406 4 12 290
1931261N12133 1931 39 WP MM NOT_NAMED 1931-09-20 09:00:00 NR 12.6055 123.864 main 10 0 __________P___ -1 12.6055 123.864 4 11 296
1931261N12133 1931 39 WP MM NOT_NAMED 1931-09-20 10:00:00 NR 12.7000 123.700 main 10 10 __________O___ -1 12.7000 123.700 4 11 305
1931261N12133 1931 39 WP MM NOT_NAMED 1931-09-20 12:00:00 NR 12.9333 123.387 main 11 0 __________P___ -1 12.9333 123.387 4 12 312
1931261N12133 1931 39 WP MM NOT_NAMED 1931-09-20 15:00:00 NR 13.3408 122.973 main 24 10 __________P___ -1 13.3408 122.973 4 11 319
1931261N12133 1931 39 WP MM NOT_NAMED 1931-09-20 18:00:00 NR 13.7728 122.632 main 10 0 __________P___ -1 13.7728 122.632 4 10 325
1931261N12133 1931 39 WP MM NOT_NAMED 1931-09-20 21:00:00 NR 14.1790 122.369 main 0 0 __________P___ -1 14.1790 122.369 4 9 329
1931261N12133 1931 39 WP MM NOT_NAMED 1931-09-20 22:00:00 NR 14.3000 122.300 main 15 15 __________O___ -1 14.3000 122.300 4 7 329
1931261N12133 1931 39 WP MM NOT_NAMED 1931-09-21 00:00:00 NR 14.4871 122.184 main 39 39 __________P___ -1 14.4871 122.184 4 6 333
1931261N12133 1931 39 WP MM NOT_NAMED 1931-09-21 03:00:00 NR 14.7237 122.080 main 43 34 __________P___ -1 14.7237 122.080 4 5 342
1931261N12133 1931 39 WP MM NOT_NAMED 1931-09-21 06:00:00 NR 14.9298 122.032 main 39 39 __________P___ -1 14.9298 122.032 4 4 350
1931261N12133 1931 39 WP MM NOT_NAMED 1931-09-21 09:00:00 NR 15.1302 122.008 main 54 54 __________P___ -1 15.1302 122.008 4 4 350
1931261N12133 1931 39 WP MM NOT_NAMED 1931-09-21 10:00:00 NR 15.2000 122.000 main 58 58 __________O___ -1 15.2000 122.000 4 4 351
1931261N12133 1931 39 WP MM NOT_NAMED 1931-09-21 12:00:00 NR 15.3478 121.961 main 58 34 __________P___ -1 15.3478 121.961 4 5 347
1931261N12133 1931 39 WP MM NOT_NAMED 1931-09-21 15:00:00 NR 15.5756 121.909 main 34 24 __________P___ -1 15.5756 121.909 4 5 349
1931261N12133 1931 39 WP MM NOT_NAMED 1931-09-21 18:00:00 NR 15.8217 121.861 main 24 10 __________P___ -1 15.8217 121.861 4 5 350
1931261N12133 1931 39 WP MM NOT_NAMED 1931-09-21 21:00:00 NR 16.0987 121.815 main 10 0 __________P___ -1 16.0987 121.815 4 6 352
1931261N12133 1931 39 WP MM NOT_NAMED 1931-09-21 22:00:00 NR 16.2000 121.800 main 0 0 __________O___ -1 16.2000 121.800 4 7 351
1931261N12133 1931 39 WP MM NOT_NAMED 1931-09-22 00:00:00 NR 16.4188 121.761 main 0 0 __________P___ -1 16.4188 121.761 4 7 351
1931261N12133 1931 39 WP MM NOT_NAMED 1931-09-22 03:00:00 NR 16.7786 121.704 main 0 0 __________P___ -1 16.7786 121.704 4 8 352
1931261N12133 1931 39 WP MM NOT_NAMED 1931-09-22 06:00:00 NR 17.1650 121.651 main 0 0 __________P___ -1 17.1650 121.651 4 8 353
1931261N12133 1931 39 WP MM NOT_NAMED 1931-09-22 09:00:00 NR 17.5655 121.610 main 0 0 __________P___ -1 17.5655 121.610 4 8 354
1931261N12133 1931 39 WP MM NOT_NAMED 1931-09-22 10:00:00 NR 17.7000 121.600 main 0 0 __________O___ -1 17.7000 121.600 4 8 357
1931261N12133 1931 39 WP MM NOT_NAMED 1931-09-22 12:00:00 NR 17.9505 121.596 main 0 0 __________P___ -1 17.9505 121.596 4 8 0
1931261N12133 1931 39 WP MM NOT_NAMED 1931-09-22 15:00:00 NR 18.3322 121.603 main 0 0 __________P___ -1 18.3322 121.603 4 8 1
1931261N12133 1931 39 WP MM NOT_NAMED 1931-09-22 18:00:00 NR 18.7296 121.612 main 30 39 __________P___ -1 18.7296 121.612 4 8 0
1931261N12133 1931 39 WP MM NOT_NAMED 1931-09-22 21:00:00 NR 19.1520 121.607 main 81 81 __________P___ -1 19.1520 121.607 4 9 358
1931261N12133 1931 39 WP MM NOT_NAMED 1931-09-22 22:00:00 NR 19.3000 121.600 main 91 91 __________O___ -1 19.3000 121.600 4 9 358
1931261N12133 1931 39 WP MM NOT_NAMED 1931-09-23 00:00:00 NR 19.6130 121.588 main 124 124 __________P___ -1 19.6130 121.588 4 10 357
1931261N12133 1931 39 WP MM NOT_NAMED 1931-09-23 03:00:00 NR 20.1079 121.551 main 180 158 __________P___ -1 20.1079 121.551 4 10 354
1931261N12133 1931 39 WP MM NOT_NAMED 1931-09-23 06:00:00 NR 20.6193 121.479 main 158 103 __________P___ -1 20.6193 121.479 4 10 350
1931261N12133 1931 39 WP MM NOT_NAMED 1931-09-23 09:00:00 NR 21.1317 121.355 main 103 78 __________P___ -1 21.1317 121.355 4 11 346
1931261N12133 1931 39 WP MM NOT_NAMED 1931-09-23 10:00:00 NR 21.3000 121.300 main 78 39 __________O___ -1 21.3000 121.300 4 11 334
1931261N12133 1931 39 WP MM NOT_NAMED 1931-09-23 12:00:00 NR 21.6123 121.109 main 39 0 __________P___ -1 21.6123 121.109 4 11 328
1931261N12133 1931 39 WP MM NOT_NAMED 1931-09-23 15:00:00 NR 22.0740 120.770 main 0 0 __________P___ -1 22.0740 120.770 4 11 327
1931261N12133 1931 39 WP MM NOT_NAMED 1931-09-23 18:00:00 NR 22.5411 120.448 main 0 0 __________P___ -1 22.5411 120.448 4 11 333
1931261N12133 1931 39 WP MM NOT_NAMED 1931-09-23 21:00:00 NR 23.0296 120.232 main 0 0 __________P___ -1 23.0296 120.232 4 11 341
1931261N12133 1931 39 WP MM NOT_NAMED 1931-09-23 22:00:00 NR 23.2000 120.200 main 0 0 __________O___ -1 23.2000 120.200 4 11 0
1931261N12133 1931 39 WP MM NOT_NAMED 1931-09-24 00:00:00 NR 23.5812 120.229 main 0 0 __________P___ -1 23.5812 120.229 4 12 11
1931261N12133 1931 39 WP MM NOT_NAMED 1931-09-24 03:00:00 NR 24.1790 120.407 main 10 10 __________P___ -1 24.1790 120.407 4 13 20
1931261N12133 1931 39 WP MM NOT_NAMED 1931-09-24 06:00:00 NR 24.7746 120.703 main 22 10 __________P___ -1 24.7746 120.703 4 13 28
1931261N12133 1931 39 WP MM NOT_NAMED 1931-09-24 09:00:00 NR 25.3302 121.070 main 24 30 __________P___ -1 25.3302 121.070 4 13 32
1931261N12133 1931 39 WP MM NOT_NAMED 1931-09-24 10:00:00 NR 25.5000 121.200 main 39 39 __________O___ -1 25.5000 121.200 4 12 35
1931261N12133 1931 39 WP MM NOT_NAMED 1931-09-24 12:00:00 NR 25.8038 121.443 main 67 67 __________P___ -1 25.8038 121.443 4 11 39
1931261N12133 1931 39 WP MM NOT_NAMED 1931-09-24 15:00:00 NR 26.2091 121.845 main 113 115 __________P___ -1 26.2091 121.845 4 11 44
1931261N12133 1931 39 WP MM NOT_NAMED 1931-09-24 18:00:00 NR 26.5676 122.266 main 171 171 __________P___ -1 26.5676 122.266 4 10 47
1931261N12133 1931 39 WP MM NOT_NAMED 1931-09-24 21:00:00 NR 26.8950 122.673 main 190 187 __________P___ -1 26.8950 122.673 4 10 48
1931261N12133 1931 39 WP MM NOT_NAMED 1931-09-24 22:00:00 NR 27.0000 122.800 main 187 184 __________O___ -1 27.0000 122.800 4 9 44
1931261N12133 1931 39 WP MM NOT_NAMED 1931-09-25 00:00:00 NR 27.2220 123.026 main 184 184 __________P___ -1 27.2220 123.026 4 9 42
1931261N12133 1931 39 WP MM NOT_NAMED 1931-09-25 03:00:00 NR 27.5365 123.340 main 189 193 __________P___ -1 27.5365 123.340 4 8 41
1931261N12133 1931 39 WP MM NOT_NAMED 1931-09-25 06:00:00 NR 27.8316 123.631 main 203 203 __________P___ -1 27.8316 123.631 4 8 41
1931261N12133 1931 39 WP MM NOT_NAMED 1931-09-25 09:00:00 NR 28.1103 123.909 main 222 222 __________P___ -1 28.1103 123.909 4 7 42
1931261N12133 1931 39 WP MM NOT_NAMED 1931-09-25 10:00:00 NR 28.2000 124.000 main 224 224 __________O___ -1 28.2000 124.000 4 7 42
1931261N12133 1931 39 WP MM NOT_NAMED 1931-09-25 12:00:00 NR 28.3754 124.183 main 231 231 __________P___ -1 28.3754 124.183 4 7 43
1931261N12133 1931 39 WP MM NOT_NAMED 1931-09-25 15:00:00 NR 28.6301 124.457 main 252 249 __________P___ -1 28.6301 124.457 4 7 44
1931261N12133 1931 39 WP MM NOT_NAMED 1931-09-25 18:00:00 NR 28.8771 124.732 main 264 264 __________P___ -1 28.8771 124.732 4 7 45
1931261N12133 1931 39 WP MM NOT_NAMED 1931-09-25 21:00:00 NR 29.1197 125.008 main 291 291 __________P___ -1 29.1197 125.008 4 7 45
1931261N12133 1931 39 WP MM NOT_NAMED 1931-09-25 22:00:00 NR 29.2000 125.100 main 300 __________O___ -1 29.2000 125.100 4 7 44

デジタル台風データ・検索

IBTrACS Databaseについて

本データベースは、米国NOAAが公開する1842年以降の世界の熱帯低気圧のベストトラックデータアーカイブInternational Best Track Archive for Climate Stewardship (IBTrACS)を、ウェブで閲覧しやすい形式に変換したものです。

最終更新日:2021-11-26